sensor_id;sensor_type;location;lat;lon;timestamp;temperature;humidity
38488;DHT22;57384;51.986;4.458;2022-09-20T00:00:15;13.90;62.50
38488;DHT22;57384;51.986;4.458;2022-09-20T00:02:41;13.90;62.50
38488;DHT22;57384;51.986;4.458;2022-09-20T00:05:08;13.90;62.50
38488;DHT22;57384;51.986;4.458;2022-09-20T00:07:34;13.90;62.50
38488;DHT22;57384;51.986;4.458;2022-09-20T00:10:01;13.90;62.60
38488;DHT22;57384;51.986;4.458;2022-09-20T00:12:27;13.90;62.50
38488;DHT22;57384;51.986;4.458;2022-09-20T00:14:56;13.90;62.50
38488;DHT22;57384;51.986;4.458;2022-09-20T00:17:23;13.90;62.50
38488;DHT22;57384;51.986;4.458;2022-09-20T00:19:49;14.00;62.60
38488;DHT22;57384;51.986;4.458;2022-09-20T00:22:16;13.90;62.50
38488;DHT22;57384;51.986;4.458;2022-09-20T00:24:42;13.90;62.60
38488;DHT22;57384;51.986;4.458;2022-09-20T00:27:09;13.90;62.60
38488;DHT22;57384;51.986;4.458;2022-09-20T00:29:35;13.90;62.60
38488;DHT22;57384;51.986;4.458;2022-09-20T00:32:02;13.90;62.70
38488;DHT22;57384;51.986;4.458;2022-09-20T00:34:35;13.90;62.70
38488;DHT22;57384;51.986;4.458;2022-09-20T00:37:02;13.90;62.70
38488;DHT22;57384;51.986;4.458;2022-09-20T00:39:29;13.80;62.70
38488;DHT22;57384;51.986;4.458;2022-09-20T00:41:55;13.90;62.70
38488;DHT22;57384;51.986;4.458;2022-09-20T00:44:41;13.90;62.70
38488;DHT22;57384;51.986;4.458;2022-09-20T00:47:54;13.90;62.80
38488;DHT22;57384;51.986;4.458;2022-09-20T00:52:47;13.80;62.70
38488;DHT22;57384;51.986;4.458;2022-09-20T00:55:17;13.80;62.70
38488;DHT22;57384;51.986;4.458;2022-09-20T00:57:44;13.80;62.70
38488;DHT22;57384;51.986;4.458;2022-09-20T01:00:11;13.80;62.70
38488;DHT22;57384;51.986;4.458;2022-09-20T01:02:44;13.90;62.70
38488;DHT22;57384;51.986;4.458;2022-09-20T01:05:12;13.80;62.70
38488;DHT22;57384;51.986;4.458;2022-09-20T01:07:42;13.80;62.70
38488;DHT22;57384;51.986;4.458;2022-09-20T01:10:08;13.80;62.70
38488;DHT22;57384;51.986;4.458;2022-09-20T01:12:35;13.80;62.70
38488;DHT22;57384;51.986;4.458;2022-09-20T01:15:03;13.80;62.70
38488;DHT22;57384;51.986;4.458;2022-09-20T01:17:30;13.80;62.80
38488;DHT22;57384;51.986;4.458;2022-09-20T01:20:07;13.70;62.70
38488;DHT22;57384;51.986;4.458;2022-09-20T01:22:42;13.80;62.80
38488;DHT22;57384;51.986;4.458;2022-09-20T01:25:21;13.80;62.80
38488;DHT22;57384;51.986;4.458;2022-09-20T01:27:49;13.80;62.80
38488;DHT22;57384;51.986;4.458;2022-09-20T01:30:23;13.80;62.80
38488;DHT22;57384;51.986;4.458;2022-09-20T01:32:55;13.70;62.80
38488;DHT22;57384;51.986;4.458;2022-09-20T01:35:23;13.70;62.80
38488;DHT22;57384;51.986;4.458;2022-09-20T01:37:57;13.70;62.80
38488;DHT22;57384;51.986;4.458;2022-09-20T01:43:17;13.70;62.90
38488;DHT22;57384;51.986;4.458;2022-09-20T01:45:47;13.70;62.90
38488;DHT22;57384;51.986;4.458;2022-09-20T01:48:31;13.70;62.90
38488;DHT22;57384;51.986;4.458;2022-09-20T01:51:15;13.60;63.00
38488;DHT22;57384;51.986;4.458;2022-09-20T01:59:12;13.60;63.10
38488;DHT22;57384;51.986;4.458;2022-09-20T02:02:21;13.60;63.00
38488;DHT22;57384;51.986;4.458;2022-09-20T02:04:56;13.60;63.10
38488;DHT22;57384;51.986;4.458;2022-09-20T02:07:34;13.50;63.10
38488;DHT22;57384;51.986;4.458;2022-09-20T02:12:50;13.50;63.10
38488;DHT22;57384;51.986;4.458;2022-09-20T02:15:33;13.40;63.10
38488;DHT22;57384;51.986;4.458;2022-09-20T02:26:02;13.30;63.20
38488;DHT22;57384;51.986;4.458;2022-09-20T02:31:20;13.30;63.30
38488;DHT22;57384;51.986;4.458;2022-09-20T02:36:34;13.20;63.30
38488;DHT22;57384;51.986;4.458;2022-09-20T02:39:07;13.30;63.40
38488;DHT22;57384;51.986;4.458;2022-09-20T02:41:58;13.20;63.40
38488;DHT22;57384;51.986;4.458;2022-09-20T02:52:10;13.20;63.40
38488;DHT22;57384;51.986;4.458;2022-09-20T02:57:13;13.20;63.40
38488;DHT22;57384;51.986;4.458;2022-09-20T02:59:45;13.20;63.40
38488;DHT22;57384;51.986;4.458;2022-09-20T03:02:56;13.20;63.40
38488;DHT22;57384;51.986;4.458;2022-09-20T03:05:16;13.20;63.40
38488;DHT22;57384;51.986;4.458;2022-09-20T03:13:04;13.10;63.40
38488;DHT22;57384;51.986;4.458;2022-09-20T03:18:17;13.10;63.40
38488;DHT22;57384;51.986;4.458;2022-09-20T03:20:59;13.10;63.50
38488;DHT22;57384;51.986;4.458;2022-09-20T03:34:02;13.00;63.50
38488;DHT22;57384;51.986;4.458;2022-09-20T03:44:58;13.00;63.50
38488;DHT22;57384;51.986;4.458;2022-09-20T03:50:19;13.00;63.50
38488;DHT22;57384;51.986;4.458;2022-09-20T04:08:28;13.00;63.60
38488;DHT22;57384;51.986;4.458;2022-09-20T04:11:05;13.00;63.50
38488;DHT22;57384;51.986;4.458;2022-09-20T04:16:03;13.00;63.60
38488;DHT22;57384;51.986;4.458;2022-09-20T04:18:34;13.00;63.60
38488;DHT22;57384;51.986;4.458;2022-09-20T04:21:09;13.00;63.60
38488;DHT22;57384;51.986;4.458;2022-09-20T04:23:41;13.00;63.50
38488;DHT22;57384;51.986;4.458;2022-09-20T04:26:11;13.00;63.60
38488;DHT22;57384;51.986;4.458;2022-09-20T04:31:11;13.00;63.60
38488;DHT22;57384;51.986;4.458;2022-09-20T04:33:40;13.00;63.60
38488;DHT22;57384;51.986;4.458;2022-09-20T04:38:59;13.10;63.70
38488;DHT22;57384;51.986;4.458;2022-09-20T05:20:58;13.30;63.50
38488;DHT22;57384;51.986;4.458;2022-09-20T05:26:12;13.30;63.50
38488;DHT22;57384;51.986;4.458;2022-09-20T05:28:51;13.30;63.50
38488;DHT22;57384;51.986;4.458;2022-09-20T05:31:53;13.30;63.50
38488;DHT22;57384;51.986;4.458;2022-09-20T05:34:22;13.30;63.50
38488;DHT22;57384;51.986;4.458;2022-09-20T05:39:33;13.30;63.50
38488;DHT22;57384;51.986;4.458;2022-09-20T05:44:52;13.40;63.60
38488;DHT22;57384;51.986;4.458;2022-09-20T05:55:27;13.40;63.50
38488;DHT22;57384;51.986;4.458;2022-09-20T06:00:42;13.40;63.50
38488;DHT22;57384;51.986;4.458;2022-09-20T06:03:13;13.40;63.50
38488;DHT22;57384;51.986;4.458;2022-09-20T06:11:17;13.40;63.50
38488;DHT22;57384;51.986;4.458;2022-09-20T06:14:06;13.50;63.50
38488;DHT22;57384;51.986;4.458;2022-09-20T06:16:38;13.50;63.50
38488;DHT22;57384;51.986;4.458;2022-09-20T06:19:09;13.50;63.50
38488;DHT22;57384;51.986;4.458;2022-09-20T06:21:41;13.50;63.50
38488;DHT22;57384;51.986;4.458;2022-09-20T06:24:18;13.50;63.50
38488;DHT22;57384;51.986;4.458;2022-09-20T06:26:46;13.50;63.50
38488;DHT22;57384;51.986;4.458;2022-09-20T06:29:25;13.50;63.50
38488;DHT22;57384;51.986;4.458;2022-09-20T06:31:52;13.50;63.50
38488;DHT22;57384;51.986;4.458;2022-09-20T06:34:19;13.60;63.50
38488;DHT22;57384;51.986;4.458;2022-09-20T06:36:47;13.60;63.50
38488;DHT22;57384;51.986;4.458;2022-09-20T06:41:45;13.60;63.50
38488;DHT22;57384;51.986;4.458;2022-09-20T06:44:11;13.70;63.50
38488;DHT22;57384;51.986;4.458;2022-09-20T06:46:38;13.70;63.50
38488;DHT22;57384;51.986;4.458;2022-09-20T06:49:04;13.70;63.40
38488;DHT22;57384;51.986;4.458;2022-09-20T06:51:38;13.80;63.50
38488;DHT22;57384;51.986;4.458;2022-09-20T06:54:05;13.80;63.40
38488;DHT22;57384;51.986;4.458;2022-09-20T06:56:32;13.80;63.40
38488;DHT22;57384;51.986;4.458;2022-09-20T06:58:59;13.80;63.30
38488;DHT22;57384;51.986;4.458;2022-09-20T07:01:26;13.90;63.40
38488;DHT22;57384;51.986;4.458;2022-09-20T07:03:52;13.90;63.30
38488;DHT22;57384;51.986;4.458;2022-09-20T07:06:19;14.00;63.30
38488;DHT22;57384;51.986;4.458;2022-09-20T07:08:45;14.00;63.20
38488;DHT22;57384;51.986;4.458;2022-09-20T07:11:13;14.10;63.20
38488;DHT22;57384;51.986;4.458;2022-09-20T07:13:40;14.20;63.10
38488;DHT22;57384;51.986;4.458;2022-09-20T07:16:07;14.20;63.00
38488;DHT22;57384;51.986;4.458;2022-09-20T07:18:33;14.30;63.00
38488;DHT22;57384;51.986;4.458;2022-09-20T07:21:00;14.40;63.00
38488;DHT22;57384;51.986;4.458;2022-09-20T07:23:27;14.50;62.90
38488;DHT22;57384;51.986;4.458;2022-09-20T07:25:54;14.50;62.90
38488;DHT22;57384;51.986;4.458;2022-09-20T07:28:20;14.60;62.80
38488;DHT22;57384;51.986;4.458;2022-09-20T07:30:47;14.60;62.80
38488;DHT22;57384;51.986;4.458;2022-09-20T07:33:13;14.60;62.70
38488;DHT22;57384;51.986;4.458;2022-09-20T07:35:40;14.80;62.70
38488;DHT22;57384;51.986;4.458;2022-09-20T07:38:06;14.80;62.60
38488;DHT22;57384;51.986;4.458;2022-09-20T07:40:33;14.90;62.60
38488;DHT22;57384;51.986;4.458;2022-09-20T07:43:00;15.00;62.50
38488;DHT22;57384;51.986;4.458;2022-09-20T07:45:27;15.10;62.40
38488;DHT22;57384;51.986;4.458;2022-09-20T07:47:55;15.20;62.30
38488;DHT22;57384;51.986;4.458;2022-09-20T07:50:22;15.30;62.20
38488;DHT22;57384;51.986;4.458;2022-09-20T07:52:48;15.50;62.10
38488;DHT22;57384;51.986;4.458;2022-09-20T07:55:21;15.50;62.00
38488;DHT22;57384;51.986;4.458;2022-09-20T07:57:47;15.70;61.90
38488;DHT22;57384;51.986;4.458;2022-09-20T08:00:14;15.80;61.70
38488;DHT22;57384;51.986;4.458;2022-09-20T08:02:40;16.00;61.70
38488;DHT22;57384;51.986;4.458;2022-09-20T08:05:07;16.20;61.50
38488;DHT22;57384;51.986;4.458;2022-09-20T08:07:33;16.30;61.40
38488;DHT22;57384;51.986;4.458;2022-09-20T08:10:00;16.40;61.30
38488;DHT22;57384;51.986;4.458;2022-09-20T08:12:26;16.60;61.20
38488;DHT22;57384;51.986;4.458;2022-09-20T08:14:53;16.80;61.10
38488;DHT22;57384;51.986;4.458;2022-09-20T08:17:19;16.90;61.60
38488;DHT22;57384;51.986;4.458;2022-09-20T08:19:45;17.10;60.80
38488;DHT22;57384;51.986;4.458;2022-09-20T08:22:12;17.20;60.70
38488;DHT22;57384;51.986;4.458;2022-09-20T08:24:38;17.40;60.60
38488;DHT22;57384;51.986;4.458;2022-09-20T08:27:05;17.60;60.60
38488;DHT22;57384;51.986;4.458;2022-09-20T08:29:31;17.80;60.60
38488;DHT22;57384;51.986;4.458;2022-09-20T08:31:59;17.90;60.50
38488;DHT22;57384;51.986;4.458;2022-09-20T08:34:31;18.10;60.40
38488;DHT22;57384;51.986;4.458;2022-09-20T08:36:58;18.30;60.40
38488;DHT22;57384;51.986;4.458;2022-09-20T08:39:24;18.50;60.40
38488;DHT22;57384;51.986;4.458;2022-09-20T08:44:21;18.80;60.40
38488;DHT22;57384;51.986;4.458;2022-09-20T08:46:48;19.00;60.40
38488;DHT22;57384;51.986;4.458;2022-09-20T08:49:18;19.10;60.30
38488;DHT22;57384;51.986;4.458;2022-09-20T08:51:47;19.30;60.40
38488;DHT22;57384;51.986;4.458;2022-09-20T08:54:14;19.40;60.30
38488;DHT22;57384;51.986;4.458;2022-09-20T08:56:41;19.60;60.40
38488;DHT22;57384;51.986;4.458;2022-09-20T08:59:08;19.70;60.30
38488;DHT22;57384;51.986;4.458;2022-09-20T09:01:39;19.90;60.30
38488;DHT22;57384;51.986;4.458;2022-09-20T09:06:38;20.10;60.80
38488;DHT22;57384;51.986;4.458;2022-09-20T09:09:05;20.30;60.30
38488;DHT22;57384;51.986;4.458;2022-09-20T09:11:32;20.40;60.80
38488;DHT22;57384;51.986;4.458;2022-09-20T09:14:06;20.60;60.20
38488;DHT22;57384;51.986;4.458;2022-09-20T09:16:33;20.80;60.20
38488;DHT22;57384;51.986;4.458;2022-09-20T09:21:44;21.10;60.10
38488;DHT22;57384;51.986;4.458;2022-09-20T09:24:13;21.20;60.00
38488;DHT22;57384;51.986;4.458;2022-09-20T09:26:41;21.30;60.00
38488;DHT22;57384;51.986;4.458;2022-09-20T09:29:18;21.40;60.10
38488;DHT22;57384;51.986;4.458;2022-09-20T09:31:47;21.50;60.20
38488;DHT22;57384;51.986;4.458;2022-09-20T09:36:50;21.70;60.30
38488;DHT22;57384;51.986;4.458;2022-09-20T09:39:26;21.80;60.30
38488;DHT22;57384;51.986;4.458;2022-09-20T09:41:53;21.80;60.30
38488;DHT22;57384;51.986;4.458;2022-09-20T09:44:24;21.80;60.40
38488;DHT22;57384;51.986;4.458;2022-09-20T09:46:51;21.90;60.50
38488;DHT22;57384;51.986;4.458;2022-09-20T09:49:22;21.90;60.60
38488;DHT22;57384;51.986;4.458;2022-09-20T09:51:59;21.90;60.60
38488;DHT22;57384;51.986;4.458;2022-09-20T09:54:30;21.90;60.70
38488;DHT22;57384;51.986;4.458;2022-09-20T10:17:27;22.60;60.30
38488;DHT22;57384;51.986;4.458;2022-09-20T10:20:14;22.70;60.20
38488;DHT22;57384;51.986;4.458;2022-09-20T10:22:58;22.70;60.30
38488;DHT22;57384;51.986;4.458;2022-09-20T10:27:57;22.80;60.30
38488;DHT22;57384;51.986;4.458;2022-09-20T10:30:30;22.80;60.30
38488;DHT22;57384;51.986;4.458;2022-09-20T10:33:15;22.90;60.40
38488;DHT22;57384;51.986;4.458;2022-09-20T10:38:17;22.90;60.30
38488;DHT22;57384;51.986;4.458;2022-09-20T10:43:15;22.90;60.40
38488;DHT22;57384;51.986;4.458;2022-09-20T10:48:31;22.90;60.50
38488;DHT22;57384;51.986;4.458;2022-09-20T10:51:01;22.90;60.50
38488;DHT22;57384;51.986;4.458;2022-09-20T10:56:02;23.00;60.50
38488;DHT22;57384;51.986;4.458;2022-09-20T10:58:43;23.10;60.40
38488;DHT22;57384;51.986;4.458;2022-09-20T11:01:20;23.20;60.20
38488;DHT22;57384;51.986;4.458;2022-09-20T11:09:00;23.30;59.80
38488;DHT22;57384;51.986;4.458;2022-09-20T11:11:28;23.40;59.70
38488;DHT22;57384;51.986;4.458;2022-09-20T11:13:58;23.40;60.20
38488;DHT22;57384;51.986;4.458;2022-09-20T11:18:58;23.60;59.40
38488;DHT22;57384;51.986;4.458;2022-09-20T11:21:27;23.70;59.20
38488;DHT22;57384;51.986;4.458;2022-09-20T11:26:51;24.00;59.00
38488;DHT22;57384;51.986;4.458;2022-09-20T11:31:55;24.20;58.60
38488;DHT22;57384;51.986;4.458;2022-09-20T11:34:27;24.40;58.40
38488;DHT22;57384;51.986;4.458;2022-09-20T11:37:01;24.60;58.30
38488;DHT22;57384;51.986;4.458;2022-09-20T11:39:38;24.70;58.10
38488;DHT22;57384;51.986;4.458;2022-09-20T11:42:06;24.80;58.00
38488;DHT22;57384;51.986;4.458;2022-09-20T11:44:37;24.90;57.90
38488;DHT22;57384;51.986;4.458;2022-09-20T11:47:06;25.00;57.80
38488;DHT22;57384;51.986;4.458;2022-09-20T11:49:58;25.10;57.80
38488;DHT22;57384;51.986;4.458;2022-09-20T11:52:34;25.10;57.70
38488;DHT22;57384;51.986;4.458;2022-09-20T11:57:37;25.40;57.50
38488;DHT22;57384;51.986;4.458;2022-09-20T12:00:04;25.50;57.30
38488;DHT22;57384;51.986;4.458;2022-09-20T12:05:00;25.80;56.90
38488;DHT22;57384;51.986;4.458;2022-09-20T12:07:37;26.00;56.80
38488;DHT22;57384;51.986;4.458;2022-09-20T12:10:21;26.10;56.60
38488;DHT22;57384;51.986;4.458;2022-09-20T12:12:48;26.40;56.50
38488;DHT22;57384;51.986;4.458;2022-09-20T12:25:58;27.40;55.70
38488;DHT22;57384;51.986;4.458;2022-09-20T12:36:19;27.60;55.90
38488;DHT22;57384;51.986;4.458;2022-09-20T12:38:46;27.50;55.80
38488;DHT22;57384;51.986;4.458;2022-09-20T12:41:14;27.50;55.90
38488;DHT22;57384;51.986;4.458;2022-09-20T12:43:49;27.40;55.70
38488;DHT22;57384;51.986;4.458;2022-09-20T12:46:21;27.40;55.70
38488;DHT22;57384;51.986;4.458;2022-09-20T12:48:48;27.30;55.60
38488;DHT22;57384;51.986;4.458;2022-09-20T12:51:20;27.30;55.60
38488;DHT22;57384;51.986;4.458;2022-09-20T12:54:00;27.20;55.50
38488;DHT22;57384;51.986;4.458;2022-09-20T12:56:27;27.10;55.40
38488;DHT22;57384;51.986;4.458;2022-09-20T12:58:53;27.00;55.30
38488;DHT22;57384;51.986;4.458;2022-09-20T13:03:48;26.90;55.10
38488;DHT22;57384;51.986;4.458;2022-09-20T13:08:42;26.90;54.60
38488;DHT22;57384;51.986;4.458;2022-09-20T13:11:19;26.90;54.40
38488;DHT22;57384;51.986;4.458;2022-09-20T13:13:49;26.90;54.30
38488;DHT22;57384;51.986;4.458;2022-09-20T13:16:25;26.80;54.10
38488;DHT22;57384;51.986;4.458;2022-09-20T13:21:39;26.70;53.70
38488;DHT22;57384;51.986;4.458;2022-09-20T13:24:06;26.70;53.70
38488;DHT22;57384;51.986;4.458;2022-09-20T13:26:40;26.60;53.40
38488;DHT22;57384;51.986;4.458;2022-09-20T13:29:17;26.50;53.20
38488;DHT22;57384;51.986;4.458;2022-09-20T13:31:46;26.40;53.30
38488;DHT22;57384;51.986;4.458;2022-09-20T13:34:16;26.40;53.40
38488;DHT22;57384;51.986;4.458;2022-09-20T13:36:43;26.30;53.50
38488;DHT22;57384;51.986;4.458;2022-09-20T13:42:07;26.00;53.70
38488;DHT22;57384;51.986;4.458;2022-09-20T13:44:35;25.90;53.80
38488;DHT22;57384;51.986;4.458;2022-09-20T13:47:04;25.80;53.80
38488;DHT22;57384;51.986;4.458;2022-09-20T13:49:32;25.70;53.80
38488;DHT22;57384;51.986;4.458;2022-09-20T13:52:10;25.60;53.80
38488;DHT22;57384;51.986;4.458;2022-09-20T13:54:39;25.50;53.80
38488;DHT22;57384;51.986;4.458;2022-09-20T13:57:18;25.40;53.70
38488;DHT22;57384;51.986;4.458;2022-09-20T13:59:46;25.40;54.20
38488;DHT22;57384;51.986;4.458;2022-09-20T14:02:23;25.20;53.70
38488;DHT22;57384;51.986;4.458;2022-09-20T14:04:53;25.10;53.80
38488;DHT22;57384;51.986;4.458;2022-09-20T14:07:20;25.00;53.30
38488;DHT22;57384;51.986;4.458;2022-09-20T14:09:47;24.90;52.70
38488;DHT22;57384;51.986;4.458;2022-09-20T14:12:13;24.70;52.60
38488;DHT22;57384;51.986;4.458;2022-09-20T14:14:40;24.70;52.90
38488;DHT22;57384;51.986;4.458;2022-09-20T14:17:06;24.60;53.00
38488;DHT22;57384;51.986;4.458;2022-09-20T14:19:35;24.40;53.10
38488;DHT22;57384;51.986;4.458;2022-09-20T14:22:03;24.30;53.00
38488;DHT22;57384;51.986;4.458;2022-09-20T14:24:34;24.20;53.00
38488;DHT22;57384;51.986;4.458;2022-09-20T14:27:02;24.10;52.90
38488;DHT22;57384;51.986;4.458;2022-09-20T14:34:43;23.80;53.20
38488;DHT22;57384;51.986;4.458;2022-09-20T14:37:15;23.70;53.30
38488;DHT22;57384;51.986;4.458;2022-09-20T14:39:47;23.50;53.30
38488;DHT22;57384;51.986;4.458;2022-09-20T14:42:18;23.40;53.30
38488;DHT22;57384;51.986;4.458;2022-09-20T14:44:46;23.30;53.30
38488;DHT22;57384;51.986;4.458;2022-09-20T14:47:15;23.20;53.40
38488;DHT22;57384;51.986;4.458;2022-09-20T14:49:44;23.10;53.40
38488;DHT22;57384;51.986;4.458;2022-09-20T14:57:34;22.70;53.60
38488;DHT22;57384;51.986;4.458;2022-09-20T15:00:04;22.60;53.70
38488;DHT22;57384;51.986;4.458;2022-09-20T15:02:30;22.50;53.80
38488;DHT22;57384;51.986;4.458;2022-09-20T15:05:00;22.30;53.90
38488;DHT22;57384;51.986;4.458;2022-09-20T15:07:26;22.20;53.90
38488;DHT22;57384;51.986;4.458;2022-09-20T15:09:53;22.10;54.00
38488;DHT22;57384;51.986;4.458;2022-09-20T15:12:19;22.00;54.10
38488;DHT22;57384;51.986;4.458;2022-09-20T15:14:46;21.90;54.30
38488;DHT22;57384;51.986;4.458;2022-09-20T15:17:14;21.80;54.30
38488;DHT22;57384;51.986;4.458;2022-09-20T15:19:40;21.60;54.40
38488;DHT22;57384;51.986;4.458;2022-09-20T15:22:08;21.50;54.40
38488;DHT22;57384;51.986;4.458;2022-09-20T15:24:34;21.40;54.40
38488;DHT22;57384;51.986;4.458;2022-09-20T15:27:01;21.30;54.40
38488;DHT22;57384;51.986;4.458;2022-09-20T15:29:27;21.30;54.50
38488;DHT22;57384;51.986;4.458;2022-09-20T15:31:54;21.20;54.50
38488;DHT22;57384;51.986;4.458;2022-09-20T15:34:20;21.00;54.50
38488;DHT22;57384;51.986;4.458;2022-09-20T15:36:47;20.90;54.50
38488;DHT22;57384;51.986;4.458;2022-09-20T15:39:14;20.80;54.60
38488;DHT22;57384;51.986;4.458;2022-09-20T15:41:40;20.80;54.70
38488;DHT22;57384;51.986;4.458;2022-09-20T15:44:06;20.60;54.70
38488;DHT22;57384;51.986;4.458;2022-09-20T15:46:33;20.60;54.80
38488;DHT22;57384;51.986;4.458;2022-09-20T15:49:00;20.50;54.80
38488;DHT22;57384;51.986;4.458;2022-09-20T15:51:27;20.40;54.80
38488;DHT22;57384;51.986;4.458;2022-09-20T15:53:54;20.30;54.80
38488;DHT22;57384;51.986;4.458;2022-09-20T15:56:29;20.20;54.80
38488;DHT22;57384;51.986;4.458;2022-09-20T15:58:57;20.10;54.80
38488;DHT22;57384;51.986;4.458;2022-09-20T16:01:26;20.10;54.90
38488;DHT22;57384;51.986;4.458;2022-09-20T16:03:53;20.00;54.90
38488;DHT22;57384;51.986;4.458;2022-09-20T16:06:20;19.90;55.00
38488;DHT22;57384;51.986;4.458;2022-09-20T16:08:47;19.80;54.90
38488;DHT22;57384;51.986;4.458;2022-09-20T16:11:14;19.70;55.00
38488;DHT22;57384;51.986;4.458;2022-09-20T16:13:41;19.70;55.00
38488;DHT22;57384;51.986;4.458;2022-09-20T16:16:08;19.60;55.00
38488;DHT22;57384;51.986;4.458;2022-09-20T16:18:35;19.60;55.00
38488;DHT22;57384;51.986;4.458;2022-09-20T16:21:08;19.50;55.00
38488;DHT22;57384;51.986;4.458;2022-09-20T16:23:35;19.40;55.10
38488;DHT22;57384;51.986;4.458;2022-09-20T16:26:01;19.30;55.20
38488;DHT22;57384;51.986;4.458;2022-09-20T16:28:28;19.20;55.20
38488;DHT22;57384;51.986;4.458;2022-09-20T16:30:55;19.10;55.20
38488;DHT22;57384;51.986;4.458;2022-09-20T16:33:22;19.10;55.30
38488;DHT22;57384;51.986;4.458;2022-09-20T16:35:48;19.00;55.30
38488;DHT22;57384;51.986;4.458;2022-09-20T16:38:15;19.00;55.30
38488;DHT22;57384;51.986;4.458;2022-09-20T16:40:41;18.90;55.30
38488;DHT22;57384;51.986;4.458;2022-09-20T16:43:08;18.80;55.30
38488;DHT22;57384;51.986;4.458;2022-09-20T16:45:34;18.80;55.40
38488;DHT22;57384;51.986;4.458;2022-09-20T16:48:01;18.70;55.40
38488;DHT22;57384;51.986;4.458;2022-09-20T16:50:27;18.60;55.40
38488;DHT22;57384;51.986;4.458;2022-09-20T16:52:54;18.50;55.30
38488;DHT22;57384;51.986;4.458;2022-09-20T16:55:20;18.50;55.40
38488;DHT22;57384;51.986;4.458;2022-09-20T16:57:47;18.50;55.40
38488;DHT22;57384;51.986;4.458;2022-09-20T17:00:14;18.40;55.40
38488;DHT22;57384;51.986;4.458;2022-09-20T17:02:40;18.40;55.50
38488;DHT22;57384;51.986;4.458;2022-09-20T17:05:07;18.30;55.50
38488;DHT22;57384;51.986;4.458;2022-09-20T17:07:33;18.20;55.40
38488;DHT22;57384;51.986;4.458;2022-09-20T17:10:00;18.20;55.50
38488;DHT22;57384;51.986;4.458;2022-09-20T17:12:26;18.10;55.50
38488;DHT22;57384;51.986;4.458;2022-09-20T17:14:59;18.10;55.60
38488;DHT22;57384;51.986;4.458;2022-09-20T17:17:25;18.00;55.60
38488;DHT22;57384;51.986;4.458;2022-09-20T17:19:52;18.00;55.60
38488;DHT22;57384;51.986;4.458;2022-09-20T17:22:18;17.90;55.60
38488;DHT22;57384;51.986;4.458;2022-09-20T17:24:45;17.80;55.70
38488;DHT22;57384;51.986;4.458;2022-09-20T17:27:14;17.80;55.70
38488;DHT22;57384;51.986;4.458;2022-09-20T17:29:40;17.70;56.20
38488;DHT22;57384;51.986;4.458;2022-09-20T17:32:07;17.70;55.80
38488;DHT22;57384;51.986;4.458;2022-09-20T17:34:33;17.60;55.70
38488;DHT22;57384;51.986;4.458;2022-09-20T17:37:00;17.60;55.80
38488;DHT22;57384;51.986;4.458;2022-09-20T17:39:26;17.50;55.80
38488;DHT22;57384;51.986;4.458;2022-09-20T17:41:53;17.50;55.80
38488;DHT22;57384;51.986;4.458;2022-09-20T17:44:19;17.40;55.80
38488;DHT22;57384;51.986;4.458;2022-09-20T17:46:46;17.40;55.90
38488;DHT22;57384;51.986;4.458;2022-09-20T17:49:13;17.30;55.90
38488;DHT22;57384;51.986;4.458;2022-09-20T17:51:44;17.30;56.00
38488;DHT22;57384;51.986;4.458;2022-09-20T17:54:11;17.20;56.00
38488;DHT22;57384;51.986;4.458;2022-09-20T17:56:39;17.20;56.10
38488;DHT22;57384;51.986;4.458;2022-09-20T17:59:09;17.10;56.10
38488;DHT22;57384;51.986;4.458;2022-09-20T18:01:36;17.00;56.10
38488;DHT22;57384;51.986;4.458;2022-09-20T18:04:03;16.90;56.10
38488;DHT22;57384;51.986;4.458;2022-09-20T18:06:37;16.90;56.20
38488;DHT22;57384;51.986;4.458;2022-09-20T18:09:08;16.80;56.20
38488;DHT22;57384;51.986;4.458;2022-09-20T18:11:41;16.80;56.20
38488;DHT22;57384;51.986;4.458;2022-09-20T18:14:08;16.70;56.20
38488;DHT22;57384;51.986;4.458;2022-09-20T18:16:35;16.70;56.30
38488;DHT22;57384;51.986;4.458;2022-09-20T18:19:02;16.60;56.30
38488;DHT22;57384;51.986;4.458;2022-09-20T18:21:29;16.50;56.30
38488;DHT22;57384;51.986;4.458;2022-09-20T18:23:56;16.50;56.30
38488;DHT22;57384;51.986;4.458;2022-09-20T18:26:24;16.40;56.40
38488;DHT22;57384;51.986;4.458;2022-09-20T18:31:17;16.30;56.50
38488;DHT22;57384;51.986;4.458;2022-09-20T18:33:44;16.30;56.50
38488;DHT22;57384;51.986;4.458;2022-09-20T18:36:10;16.20;56.60
38488;DHT22;57384;51.986;4.458;2022-09-20T18:38:42;16.20;56.60
38488;DHT22;57384;51.986;4.458;2022-09-20T18:41:09;16.10;56.60
38488;DHT22;57384;51.986;4.458;2022-09-20T18:46:27;16.00;56.70
38488;DHT22;57384;51.986;4.458;2022-09-20T18:48:55;15.90;56.70
38488;DHT22;57384;51.986;4.458;2022-09-20T18:51:22;15.90;56.70
38488;DHT22;57384;51.986;4.458;2022-09-20T18:53:49;15.80;56.70
38488;DHT22;57384;51.986;4.458;2022-09-20T18:56:23;15.70;56.70
38488;DHT22;57384;51.986;4.458;2022-09-20T18:58:56;15.70;56.70
38488;DHT22;57384;51.986;4.458;2022-09-20T19:04:19;15.60;56.80
38488;DHT22;57384;51.986;4.458;2022-09-20T19:09:23;15.50;56.90
38488;DHT22;57384;51.986;4.458;2022-09-20T19:11:53;15.40;56.90
38488;DHT22;57384;51.986;4.458;2022-09-20T19:14:24;15.40;56.90
38488;DHT22;57384;51.986;4.458;2022-09-20T19:16:57;15.30;56.90
38488;DHT22;57384;51.986;4.458;2022-09-20T19:24:50;15.20;57.00
38488;DHT22;57384;51.986;4.458;2022-09-20T19:27:19;15.10;57.00
38488;DHT22;57384;51.986;4.458;2022-09-20T19:29:46;15.00;57.00
38488;DHT22;57384;51.986;4.458;2022-09-20T19:32:15;15.00;57.00
38488;DHT22;57384;51.986;4.458;2022-09-20T19:34:42;14.90;57.10
38488;DHT22;57384;51.986;4.458;2022-09-20T19:37:22;14.90;57.10
38488;DHT22;57384;51.986;4.458;2022-09-20T19:40:06;14.90;57.10
38488;DHT22;57384;51.986;4.458;2022-09-20T19:50:50;14.70;57.20
38488;DHT22;57384;51.986;4.458;2022-09-20T19:53:17;14.60;57.40
38488;DHT22;57384;51.986;4.458;2022-09-20T19:55:49;14.60;57.20
38488;DHT22;57384;51.986;4.458;2022-09-20T19:58:17;14.50;57.20
38488;DHT22;57384;51.986;4.458;2022-09-20T20:00:44;14.50;57.20
38488;DHT22;57384;51.986;4.458;2022-09-20T20:03:11;14.50;57.30
38488;DHT22;57384;51.986;4.458;2022-09-20T20:05:41;14.40;57.30
38488;DHT22;57384;51.986;4.458;2022-09-20T20:08:21;14.40;57.40
38488;DHT22;57384;51.986;4.458;2022-09-20T20:16:13;14.30;57.40
38488;DHT22;57384;51.986;4.458;2022-09-20T20:26:44;14.20;57.40
38488;DHT22;57384;51.986;4.458;2022-09-20T20:29:11;14.10;57.40
38488;DHT22;57384;51.986;4.458;2022-09-20T20:31:38;14.10;57.40
38488;DHT22;57384;51.986;4.458;2022-09-20T20:34:04;14.10;57.40
38488;DHT22;57384;51.986;4.458;2022-09-20T20:36:31;14.10;57.50
38488;DHT22;57384;51.986;4.458;2022-09-20T20:38:58;14.00;57.40
38488;DHT22;57384;51.986;4.458;2022-09-20T20:41:25;14.00;57.40